sensor_id;sensor_type;location;lat;lon;timestamp;P1;durP1;ratioP1;P2;durP2;ratioP2
50012;SDS011;35901;48.694;9.476;2022-08-03T00:00:07;7.13;;;6.53;;
50012;SDS011;35901;48.694;9.476;2022-08-03T00:02:37;6.73;;;6.13;;
50012;SDS011;35901;48.694;9.476;2022-08-03T00:05:03;6.73;;;6.23;;
50012;SDS011;35901;48.694;9.476;2022-08-03T00:07:32;7.60;;;7.00;;
50012;SDS011;35901;48.694;9.476;2022-08-03T00:09:58;9.77;;;8.00;;
50012;SDS011;35901;48.694;9.476;2022-08-03T00:12:24;8.70;;;7.83;;
50012;SDS011;35901;48.694;9.476;2022-08-03T00:14:59;9.20;;;8.30;;
50012;SDS011;35901;48.694;9.476;2022-08-03T00:17:26;10.00;;;8.97;;
50012;SDS011;35901;48.694;9.476;2022-08-03T00:22:51;8.83;;;8.13;;
50012;SDS011;35901;48.694;9.476;2022-08-03T00:25:17;10.00;;;9.10;;
50012;SDS011;35901;48.694;9.476;2022-08-03T00:27:43;8.47;;;7.83;;
50012;SDS011;35901;48.694;9.476;2022-08-03T00:30:09;9.10;;;8.20;;
50012;SDS011;35901;48.694;9.476;2022-08-03T00:32:35;8.47;;;7.77;;
50012;SDS011;35901;48.694;9.476;2022-08-03T00:35:01;7.43;;;6.73;;
50012;SDS011;35901;48.694;9.476;2022-08-03T00:37:27;7.60;;;6.90;;
50012;SDS011;35901;48.694;9.476;2022-08-03T00:39:52;7.90;;;7.17;;
50012;SDS011;35901;48.694;9.476;2022-08-03T00:42:18;10.87;;;7.33;;
50012;SDS011;35901;48.694;9.476;2022-08-03T00:44:44;8.97;;;8.07;;
50012;SDS011;35901;48.694;9.476;2022-08-03T00:47:10;8.13;;;7.43;;
50012;SDS011;35901;48.694;9.476;2022-08-03T00:49:37;10.60;;;9.57;;
50012;SDS011;35901;48.694;9.476;2022-08-03T00:52:04;10.57;;;9.63;;
50012;SDS011;35901;48.694;9.476;2022-08-03T00:54:32;11.50;;;10.50;;
50012;SDS011;35901;48.694;9.476;2022-08-03T00:56:59;10.13;;;9.23;;
50012;SDS011;35901;48.694;9.476;2022-08-03T00:59:26;9.00;;;8.20;;
50012;SDS011;35901;48.694;9.476;2022-08-03T01:01:52;11.10;;;10.10;;
50012;SDS011;35901;48.694;9.476;2022-08-03T01:04:18;10.00;;;9.10;;
50012;SDS011;35901;48.694;9.476;2022-08-03T01:06:45;8.93;;;8.23;;
50012;SDS011;35901;48.694;9.476;2022-08-03T01:09:22;9.47;;;8.67;;
50012;SDS011;35901;48.694;9.476;2022-08-03T01:12:10;8.83;;;7.97;;
50012;SDS011;35901;48.694;9.476;2022-08-03T01:14:50;9.93;;;9.03;;
50012;SDS011;35901;48.694;9.476;2022-08-03T01:17:52;9.80;;;8.97;;
50012;SDS011;35901;48.694;9.476;2022-08-03T01:20:23;9.30;;;8.60;;
50012;SDS011;35901;48.694;9.476;2022-08-03T01:31:54;11.03;;;10.07;;
50012;SDS011;35901;48.694;9.476;2022-08-03T01:34:26;10.93;;;9.93;;
50012;SDS011;35901;48.694;9.476;2022-08-03T01:36:55;9.30;;;8.50;;
50012;SDS011;35901;48.694;9.476;2022-08-03T01:39:23;10.30;;;9.30;;
50012;SDS011;35901;48.694;9.476;2022-08-03T01:41:58;10.27;;;9.27;;
50012;SDS011;35901;48.694;9.476;2022-08-03T01:44:31;8.83;;;8.10;;
50012;SDS011;35901;48.694;9.476;2022-08-03T01:47:00;10.37;;;9.37;;
50012;SDS011;35901;48.694;9.476;2022-08-03T01:49:27;10.63;;;9.67;;
50012;SDS011;35901;48.694;9.476;2022-08-03T01:51:56;12.10;;;10.77;;
50012;SDS011;35901;48.694;9.476;2022-08-03T01:54:24;11.23;;;10.20;;
50012;SDS011;35901;48.694;9.476;2022-08-03T01:56:52;9.67;;;8.87;;
50012;SDS011;35901;48.694;9.476;2022-08-03T01:59:20;9.70;;;8.80;;
50012;SDS011;35901;48.694;9.476;2022-08-03T02:01:47;11.93;;;10.77;;
50012;SDS011;35901;48.694;9.476;2022-08-03T02:04:16;12.10;;;10.90;;
50012;SDS011;35901;48.694;9.476;2022-08-03T02:06:44;11.60;;;10.47;;
50012;SDS011;35901;48.694;9.476;2022-08-03T02:09:12;11.40;;;10.40;;
50012;SDS011;35901;48.694;9.476;2022-08-03T02:11:38;12.50;;;11.40;;
50012;SDS011;35901;48.694;9.476;2022-08-03T02:14:06;10.07;;;9.07;;
50012;SDS011;35901;48.694;9.476;2022-08-03T02:16:33;13.97;;;12.57;;
50012;SDS011;35901;48.694;9.476;2022-08-03T02:19:01;14.20;;;12.90;;
50012;SDS011;35901;48.694;9.476;2022-08-03T02:21:29;13.30;;;12.00;;
50012;SDS011;35901;48.694;9.476;2022-08-03T02:23:59;12.37;;;11.27;;
50012;SDS011;35901;48.694;9.476;2022-08-03T02:26:27;14.30;;;12.90;;
50012;SDS011;35901;48.694;9.476;2022-08-03T02:28:55;12.53;;;11.33;;
50012;SDS011;35901;48.694;9.476;2022-08-03T02:31:24;11.83;;;10.73;;
50012;SDS011;35901;48.694;9.476;2022-08-03T02:33:58;12.50;;;11.23;;
50012;SDS011;35901;48.694;9.476;2022-08-03T02:36:28;11.90;;;10.77;;
50012;SDS011;35901;48.694;9.476;2022-08-03T02:38:56;10.57;;;9.63;;
50012;SDS011;35901;48.694;9.476;2022-08-03T02:41:31;11.87;;;10.83;;
50012;SDS011;35901;48.694;9.476;2022-08-03T02:44:03;12.27;;;11.07;;
50012;SDS011;35901;48.694;9.476;2022-08-03T02:46:33;12.93;;;11.73;;
50012;SDS011;35901;48.694;9.476;2022-08-03T02:49:04;14.60;;;12.90;;
50012;SDS011;35901;48.694;9.476;2022-08-03T02:51:33;14.93;;;13.40;;
50012;SDS011;35901;48.694;9.476;2022-08-03T02:54:03;14.23;;;12.57;;
50012;SDS011;35901;48.694;9.476;2022-08-03T02:56:30;12.23;;;11.03;;
50012;SDS011;35901;48.694;9.476;2022-08-03T02:58:57;14.13;;;12.73;;
50012;SDS011;35901;48.694;9.476;2022-08-03T03:01:26;12.97;;;11.67;;
50012;SDS011;35901;48.694;9.476;2022-08-03T03:03:53;13.43;;;12.13;;
50012;SDS011;35901;48.694;9.476;2022-08-03T03:06:21;11.73;;;10.63;;
50012;SDS011;35901;48.694;9.476;2022-08-03T03:08:49;12.47;;;11.27;;
50012;SDS011;35901;48.694;9.476;2022-08-03T03:11:17;12.60;;;11.40;;
50012;SDS011;35901;48.694;9.476;2022-08-03T03:13:45;12.47;;;11.33;;
50012;SDS011;35901;48.694;9.476;2022-08-03T03:16:12;13.80;;;12.37;;
50012;SDS011;35901;48.694;9.476;2022-08-03T03:18:42;10.83;;;9.93;;
50012;SDS011;35901;48.694;9.476;2022-08-03T03:21:09;11.07;;;10.10;;
50012;SDS011;35901;48.694;9.476;2022-08-03T03:23:37;13.67;;;12.00;;
50012;SDS011;35901;48.694;9.476;2022-08-03T03:26:04;12.87;;;11.57;;
50012;SDS011;35901;48.694;9.476;2022-08-03T03:28:31;12.83;;;11.57;;
50012;SDS011;35901;48.694;9.476;2022-08-03T03:31:01;14.53;;;12.83;;
50012;SDS011;35901;48.694;9.476;2022-08-03T03:33:29;15.00;;;13.40;;
50012;SDS011;35901;48.694;9.476;2022-08-03T03:35:55;15.20;;;13.73;;
50012;SDS011;35901;48.694;9.476;2022-08-03T03:38:22;15.57;;;14.07;;
50012;SDS011;35901;48.694;9.476;2022-08-03T03:40:48;15.40;;;13.80;;
50012;SDS011;35901;48.694;9.476;2022-08-03T03:43:14;15.63;;;14.03;;
50012;SDS011;35901;48.694;9.476;2022-08-03T03:45:40;16.50;;;14.90;;
50012;SDS011;35901;48.694;9.476;2022-08-03T03:48:07;16.70;;;15.00;;
50012;SDS011;35901;48.694;9.476;2022-08-03T03:50:33;14.40;;;13.00;;
50012;SDS011;35901;48.694;9.476;2022-08-03T03:53:00;14.63;;;13.23;;
50012;SDS011;35901;48.694;9.476;2022-08-03T03:55:27;14.67;;;13.20;;
50012;SDS011;35901;48.694;9.476;2022-08-03T03:57:53;12.63;;;11.40;;
50012;SDS011;35901;48.694;9.476;2022-08-03T04:00:20;12.83;;;11.67;;
50012;SDS011;35901;48.694;9.476;2022-08-03T04:02:46;16.40;;;14.90;;
50012;SDS011;35901;48.694;9.476;2022-08-03T04:05:15;14.63;;;13.23;;
50012;SDS011;35901;48.694;9.476;2022-08-03T04:10:46;14.77;;;13.37;;
50012;SDS011;35901;48.694;9.476;2022-08-03T04:13:22;14.47;;;13.17;;
50012;SDS011;35901;48.694;9.476;2022-08-03T04:15:54;15.00;;;13.60;;
50012;SDS011;35901;48.694;9.476;2022-08-03T04:18:22;16.97;;;15.17;;
50012;SDS011;35901;48.694;9.476;2022-08-03T04:20:51;16.80;;;15.20;;
50012;SDS011;35901;48.694;9.476;2022-08-03T04:23:20;15.90;;;14.33;;
50012;SDS011;35901;48.694;9.476;2022-08-03T04:25:48;15.50;;;13.87;;
50012;SDS011;35901;48.694;9.476;2022-08-03T04:28:16;14.23;;;12.80;;
50012;SDS011;35901;48.694;9.476;2022-08-03T04:30:44;14.37;;;13.07;;
50012;SDS011;35901;48.694;9.476;2022-08-03T04:33:13;14.93;;;13.53;;
50012;SDS011;35901;48.694;9.476;2022-08-03T04:35:40;14.30;;;12.90;;
50012;SDS011;35901;48.694;9.476;2022-08-03T04:38:08;14.63;;;13.23;;
50012;SDS011;35901;48.694;9.476;2022-08-03T04:40:39;14.07;;;12.67;;
50012;SDS011;35901;48.694;9.476;2022-08-03T04:43:07;12.27;;;11.10;;
50012;SDS011;35901;48.694;9.476;2022-08-03T04:45:34;10.60;;;9.70;;
50012;SDS011;35901;48.694;9.476;2022-08-03T04:48:01;9.17;;;8.27;;
50012;SDS011;35901;48.694;9.476;2022-08-03T04:50:27;7.63;;;7.10;;
50012;SDS011;35901;48.694;9.476;2022-08-03T04:53:04;7.77;;;7.17;;
50012;SDS011;35901;48.694;9.476;2022-08-03T04:55:31;6.87;;;5.90;;
50012;SDS011;35901;48.694;9.476;2022-08-03T04:57:58;6.43;;;5.57;;
50012;SDS011;35901;48.694;9.476;2022-08-03T05:00:24;6.53;;;5.10;;
50012;SDS011;35901;48.694;9.476;2022-08-03T05:02:50;5.03;;;4.63;;
50012;SDS011;35901;48.694;9.476;2022-08-03T05:05:17;5.20;;;4.80;;
50012;SDS011;35901;48.694;9.476;2022-08-03T05:07:44;4.67;;;4.27;;
50012;SDS011;35901;48.694;9.476;2022-08-03T05:10:10;5.37;;;4.47;;
50012;SDS011;35901;48.694;9.476;2022-08-03T05:12:36;4.90;;;4.53;;
50012;SDS011;35901;48.694;9.476;2022-08-03T05:15:02;4.67;;;4.20;;
50012;SDS011;35901;48.694;9.476;2022-08-03T05:17:29;4.73;;;3.83;;
50012;SDS011;35901;48.694;9.476;2022-08-03T05:19:55;4.87;;;4.30;;
50012;SDS011;35901;48.694;9.476;2022-08-03T05:22:21;4.03;;;3.73;;
50012;SDS011;35901;48.694;9.476;2022-08-03T05:24:47;3.93;;;3.63;;
50012;SDS011;35901;48.694;9.476;2022-08-03T05:27:13;3.70;;;3.40;;
50012;SDS011;35901;48.694;9.476;2022-08-03T05:29:46;3.87;;;3.57;;
50012;SDS011;35901;48.694;9.476;2022-08-03T05:32:14;3.43;;;3.23;;
50012;SDS011;35901;48.694;9.476;2022-08-03T05:34:40;4.77;;;3.77;;
50012;SDS011;35901;48.694;9.476;2022-08-03T05:37:06;4.00;;;3.60;;
50012;SDS011;35901;48.694;9.476;2022-08-03T05:39:32;3.77;;;3.47;;
50012;SDS011;35901;48.694;9.476;2022-08-03T05:41:59;4.10;;;3.73;;
50012;SDS011;35901;48.694;9.476;2022-08-03T05:44:25;7.10;;;3.67;;
50012;SDS011;35901;48.694;9.476;2022-08-03T05:46:51;5.13;;;3.10;;
50012;SDS011;35901;48.694;9.476;2022-08-03T05:49:17;3.03;;;2.83;;
50012;SDS011;35901;48.694;9.476;2022-08-03T05:51:43;3.63;;;3.33;;
50012;SDS011;35901;48.694;9.476;2022-08-03T05:54:09;3.77;;;3.47;;
50012;SDS011;35901;48.694;9.476;2022-08-03T05:56:35;3.73;;;3.50;;
50012;SDS011;35901;48.694;9.476;2022-08-03T05:59:00;5.87;;;3.40;;
50012;SDS011;35901;48.694;9.476;2022-08-03T06:01:26;3.77;;;3.50;;
50012;SDS011;35901;48.694;9.476;2022-08-03T06:03:52;5.50;;;3.53;;
50012;SDS011;35901;48.694;9.476;2022-08-03T06:06:18;4.33;;;3.30;;
50012;SDS011;35901;48.694;9.476;2022-08-03T06:08:43;3.23;;;2.93;;
50012;SDS011;35901;48.694;9.476;2022-08-03T06:11:10;4.80;;;3.43;;
50012;SDS011;35901;48.694;9.476;2022-08-03T06:13:37;6.23;;;3.10;;
50012;SDS011;35901;48.694;9.476;2022-08-03T06:16:03;3.87;;;3.43;;
50012;SDS011;35901;48.694;9.476;2022-08-03T06:18:29;4.03;;;3.30;;
50012;SDS011;35901;48.694;9.476;2022-08-03T06:20:55;3.73;;;3.10;;
50012;SDS011;35901;48.694;9.476;2022-08-03T06:23:21;3.60;;;3.30;;
50012;SDS011;35901;48.694;9.476;2022-08-03T06:25:46;3.63;;;3.20;;
50012;SDS011;35901;48.694;9.476;2022-08-03T06:28:12;2.83;;;2.63;;
50012;SDS011;35901;48.694;9.476;2022-08-03T06:30:39;3.70;;;3.40;;
50012;SDS011;35901;48.694;9.476;2022-08-03T06:33:05;3.37;;;3.10;;
50012;SDS011;35901;48.694;9.476;2022-08-03T06:35:31;3.50;;;3.20;;
50012;SDS011;35901;48.694;9.476;2022-08-03T06:37:57;3.33;;;3.10;;
50012;SDS011;35901;48.694;9.476;2022-08-03T06:40:23;3.50;;;3.20;;
50012;SDS011;35901;48.694;9.476;2022-08-03T06:42:59;3.47;;;3.17;;
50012;SDS011;35901;48.694;9.476;2022-08-03T06:45:26;3.40;;;3.20;;
50012;SDS011;35901;48.694;9.476;2022-08-03T06:48:09;3.23;;;2.73;;
50012;SDS011;35901;48.694;9.476;2022-08-03T06:50:36;3.93;;;3.17;;
50012;SDS011;35901;48.694;9.476;2022-08-03T06:53:04;3.00;;;2.70;;
50012;SDS011;35901;48.694;9.476;2022-08-03T06:55:30;2.87;;;2.67;;
50012;SDS011;35901;48.694;9.476;2022-08-03T06:57:56;3.10;;;2.90;;
50012;SDS011;35901;48.694;9.476;2022-08-03T07:00:22;4.73;;;2.90;;
50012;SDS011;35901;48.694;9.476;2022-08-03T07:02:48;3.47;;;3.17;;
50012;SDS011;35901;48.694;9.476;2022-08-03T07:05:15;3.00;;;2.70;;
50012;SDS011;35901;48.694;9.476;2022-08-03T07:07:43;4.03;;;2.90;;
50012;SDS011;35901;48.694;9.476;2022-08-03T07:10:10;3.27;;;2.67;;
50012;SDS011;35901;48.694;9.476;2022-08-03T07:12:36;2.93;;;2.70;;
50012;SDS011;35901;48.694;9.476;2022-08-03T07:15:02;3.50;;;3.20;;
50012;SDS011;35901;48.694;9.476;2022-08-03T07:17:31;3.73;;;2.90;;
50012;SDS011;35901;48.694;9.476;2022-08-03T07:19:58;2.90;;;2.70;;
50012;SDS011;35901;48.694;9.476;2022-08-03T07:22:24;3.17;;;2.87;;
50012;SDS011;35901;48.694;9.476;2022-08-03T07:24:50;4.50;;;3.00;;
50012;SDS011;35901;48.694;9.476;2022-08-03T07:27:16;2.70;;;2.50;;
50012;SDS011;35901;48.694;9.476;2022-08-03T07:29:42;2.57;;;2.30;;
50012;SDS011;35901;48.694;9.476;2022-08-03T07:32:07;2.63;;;2.50;;
50012;SDS011;35901;48.694;9.476;2022-08-03T07:34:33;2.83;;;2.63;;
50012;SDS011;35901;48.694;9.476;2022-08-03T07:36:59;3.30;;;2.50;;
50012;SDS011;35901;48.694;9.476;2022-08-03T07:39:24;2.83;;;2.63;;
50012;SDS011;35901;48.694;9.476;2022-08-03T07:41:50;2.93;;;2.70;;
50012;SDS011;35901;48.694;9.476;2022-08-03T07:44:16;2.80;;;2.33;;
50012;SDS011;35901;48.694;9.476;2022-08-03T07:46:43;2.93;;;2.37;;
50012;SDS011;35901;48.694;9.476;2022-08-03T07:49:09;2.30;;;2.20;;
50012;SDS011;35901;48.694;9.476;2022-08-03T07:51:35;2.97;;;2.60;;
50012;SDS011;35901;48.694;9.476;2022-08-03T07:54:00;2.57;;;2.37;;
50012;SDS011;35901;48.694;9.476;2022-08-03T07:56:26;2.20;;;2.10;;
50012;SDS011;35901;48.694;9.476;2022-08-03T07:58:53;3.10;;;2.80;;
50012;SDS011;35901;48.694;9.476;2022-08-03T08:01:19;3.73;;;2.60;;
50012;SDS011;35901;48.694;9.476;2022-08-03T08:03:45;2.77;;;2.50;;
50012;SDS011;35901;48.694;9.476;2022-08-03T08:06:11;2.50;;;2.30;;
50012;SDS011;35901;48.694;9.476;2022-08-03T08:08:37;5.30;;;2.67;;
50012;SDS011;35901;48.694;9.476;2022-08-03T08:11:03;4.78;;;2.60;;
50012;SDS011;35901;48.694;9.476;2022-08-03T08:13:29;2.60;;;2.40;;
50012;SDS011;35901;48.694;9.476;2022-08-03T08:15:55;2.40;;;2.20;;
50012;SDS011;35901;48.694;9.476;2022-08-03T08:18:20;2.40;;;2.20;;
50012;SDS011;35901;48.694;9.476;2022-08-03T08:20:48;2.65;;;2.20;;
50012;SDS011;35901;48.694;9.476;2022-08-03T08:23:14;2.77;;;2.57;;
50012;SDS011;35901;48.694;9.476;2022-08-03T08:25:47;2.60;;;2.40;;
50012;SDS011;35901;48.694;9.476;2022-08-03T08:28:13;2.72;;;2.40;;
50012;SDS011;35901;48.694;9.476;2022-08-03T08:30:41;2.75;;;2.55;;
50012;SDS011;35901;48.694;9.476;2022-08-03T08:33:07;2.92;;;2.63;;
50012;SDS011;35901;48.694;9.476;2022-08-03T08:35:32;2.92;;;2.72;;
50012;SDS011;35901;48.694;9.476;2022-08-03T08:37:59;3.75;;;2.50;;
50012;SDS011;35901;48.694;9.476;2022-08-03T08:40:24;4.38;;;2.90;;
50012;SDS011;35901;48.694;9.476;2022-08-03T08:42:52;2.90;;;2.40;;
50012;SDS011;35901;48.694;9.476;2022-08-03T08:45:17;2.55;;;2.35;;
50012;SDS011;35901;48.694;9.476;2022-08-03T08:47:44;2.70;;;2.50;;
50012;SDS011;35901;48.694;9.476;2022-08-03T08:50:11;2.50;;;2.40;;
50012;SDS011;35901;48.694;9.476;2022-08-03T08:52:40;3.47;;;2.50;;
50012;SDS011;35901;48.694;9.476;2022-08-03T08:55:12;4.03;;;2.50;;
50012;SDS011;35901;48.694;9.476;2022-08-03T08:57:48;3.70;;;2.60;;
50012;SDS011;35901;48.694;9.476;2022-08-03T09:00:21;2.70;;;2.50;;
50012;SDS011;35901;48.694;9.476;2022-08-03T09:02:47;2.85;;;2.65;;
50012;SDS011;35901;48.694;9.476;2022-08-03T09:05:14;2.70;;;2.50;;
50012;SDS011;35901;48.694;9.476;2022-08-03T09:07:44;2.67;;;2.47;;
50012;SDS011;35901;48.694;9.476;2022-08-03T09:10:11;2.90;;;2.63;;
50012;SDS011;35901;48.694;9.476;2022-08-03T09:12:46;4.55;;;2.72;;
50012;SDS011;35901;48.694;9.476;2022-08-03T09:15:17;4.35;;;2.25;;
50012;SDS011;35901;48.694;9.476;2022-08-03T09:17:47;2.35;;;2.22;;
50012;SDS011;35901;48.694;9.476;2022-08-03T09:20:15;2.75;;;2.50;;
50012;SDS011;35901;48.694;9.476;2022-08-03T09:22:50;2.17;;;2.08;;
50012;SDS011;35901;48.694;9.476;2022-08-03T09:25:37;2.28;;;2.08;;
50012;SDS011;35901;48.694;9.476;2022-08-03T09:28:06;2.10;;;2.00;;
50012;SDS011;35901;48.694;9.476;2022-08-03T09:30:40;2.45;;;2.17;;
50012;SDS011;35901;48.694;9.476;2022-08-03T09:33:09;2.38;;;2.17;;
50012;SDS011;35901;48.694;9.476;2022-08-03T09:35:43;3.75;;;2.22;;
50012;SDS011;35901;48.694;9.476;2022-08-03T09:38:11;2.30;;;2.05;;
50012;SDS011;35901;48.694;9.476;2022-08-03T09:40:37;2.15;;;2.05;;
50012;SDS011;35901;48.694;9.476;2022-08-03T09:43:03;2.40;;;2.20;;
50012;SDS011;35901;48.694;9.476;2022-08-03T09:45:32;1.95;;;1.75;;
50012;SDS011;35901;48.694;9.476;2022-08-03T09:50:48;1.88;;;1.60;;
50012;SDS011;35901;48.694;9.476;2022-08-03T09:53:18;1.52;;;1.42;;
50012;SDS011;35901;48.694;9.476;2022-08-03T09:55:51;2.03;;;1.80;;
50012;SDS011;35901;48.694;9.476;2022-08-03T09:58:25;1.63;;;1.50;;
50012;SDS011;35901;48.694;9.476;2022-08-03T10:03:23;1.80;;;1.70;;
50012;SDS011;35901;48.694;9.476;2022-08-03T10:05:51;2.40;;;1.65;;
50012;SDS011;35901;48.694;9.476;2022-08-03T10:08:17;1.70;;;1.60;;
50012;SDS011;35901;48.694;9.476;2022-08-03T10:10:44;1.70;;;1.60;;
50012;SDS011;35901;48.694;9.476;2022-08-03T10:13:12;1.73;;;1.63;;
50012;SDS011;35901;48.694;9.476;2022-08-03T10:15:39;2.17;;;1.60;;
50012;SDS011;35901;48.694;9.476;2022-08-03T10:18:05;1.80;;;1.70;;
50012;SDS011;35901;48.694;9.476;2022-08-03T10:20:32;1.88;;;1.77;;
50012;SDS011;35901;48.694;9.476;2022-08-03T10:23:13;1.63;;;1.52;;
50012;SDS011;35901;48.694;9.476;2022-08-03T10:25:41;1.73;;;1.63;;
50012;SDS011;35901;48.694;9.476;2022-08-03T10:28:11;2.65;;;1.60;;
50012;SDS011;35901;48.694;9.476;2022-08-03T10:30:40;2.10;;;1.75;;
50012;SDS011;35901;48.694;9.476;2022-08-03T10:35:45;1.60;;;1.50;;
50012;SDS011;35901;48.694;9.476;2022-08-03T10:38:19;1.67;;;1.63;;
50012;SDS011;35901;48.694;9.476;2022-08-03T10:40:49;1.58;;;1.48;;
50012;SDS011;35901;48.694;9.476;2022-08-03T10:43:20;1.65;;;1.55;;
50012;SDS011;35901;48.694;9.476;2022-08-03T10:45:51;2.67;;;1.70;;
50012;SDS011;35901;48.694;9.476;2022-08-03T10:48:18;1.40;;;1.40;;
50012;SDS011;35901;48.694;9.476;2022-08-03T10:50:45;1.73;;;1.52;;
50012;SDS011;35901;48.694;9.476;2022-08-03T10:53:14;2.58;;;1.65;;
50012;SDS011;35901;48.694;9.476;2022-08-03T10:55:40;2.00;;;1.85;;
50012;SDS011;35901;48.694;9.476;2022-08-03T11:01:11;2.28;;;1.70;;
50012;SDS011;35901;48.694;9.476;2022-08-03T11:06:21;1.55;;;1.55;;
50012;SDS011;35901;48.694;9.476;2022-08-03T11:09:23;1.70;;;1.60;;
50012;SDS011;35901;48.694;9.476;2022-08-03T11:11:43;2.60;;;1.73;;
50012;SDS011;35901;48.694;9.476;2022-08-03T11:19:13;1.73;;;1.60;;
50012;SDS011;35901;48.694;9.476;2022-08-03T11:30:08;1.60;;;1.50;;
50012;SDS011;35901;48.694;9.476;2022-08-03T11:32:57;1.80;;;1.70;;
50012;SDS011;35901;48.694;9.476;2022-08-03T11:35:24;1.92;;;1.83;;
50012;SDS011;35901;48.694;9.476;2022-08-03T11:40:42;1.58;;;1.50;;
50012;SDS011;35901;48.694;9.476;2022-08-03T11:48:33;1.80;;;1.70;;
50012;SDS011;35901;48.694;9.476;2022-08-03T11:51:03;1.65;;;1.55;;
50012;SDS011;35901;48.694;9.476;2022-08-03T11:53:30;1.70;;;1.60;;
50012;SDS011;35901;48.694;9.476;2022-08-03T11:55:57;1.70;;;1.60;;
50012;SDS011;35901;48.694;9.476;2022-08-03T11:58:24;1.80;;;1.70;;
50012;SDS011;35901;48.694;9.476;2022-08-03T12:01:03;1.77;;;1.67;;
50012;SDS011;35901;48.694;9.476;2022-08-03T12:03:33;2.00;;;1.70;;
50012;SDS011;35901;48.694;9.476;2022-08-03T12:06:09;2.38;;;2.00;;
50012;SDS011;35901;48.694;9.476;2022-08-03T12:08:43;1.80;;;1.70;;
50012;SDS011;35901;48.694;9.476;2022-08-03T12:11:12;2.00;;;1.80;;
50012;SDS011;35901;48.694;9.476;2022-08-03T12:13:45;2.85;;;1.83;;
50012;SDS011;35901;48.694;9.476;2022-08-03T12:16:20;2.38;;;2.00;;
50012;SDS011;35901;48.694;9.476;2022-08-03T12:18:59;2.38;;;1.80;;
50012;SDS011;35901;48.694;9.476;2022-08-03T12:21:26;3.08;;;1.98;;
50012;SDS011;35901;48.694;9.476;2022-08-03T12:23:56;1.80;;;1.70;;
50012;SDS011;35901;48.694;9.476;2022-08-03T12:26:27;1.80;;;1.70;;
50012;SDS011;35901;48.694;9.476;2022-08-03T12:28:54;2.42;;;1.60;;
50012;SDS011;35901;48.694;9.476;2022-08-03T12:31:24;1.70;;;1.60;;
50012;SDS011;35901;48.694;9.476;2022-08-03T12:33:55;1.83;;;1.70;;
50012;SDS011;35901;48.694;9.476;2022-08-03T12:36:22;1.70;;;1.60;;
50012;SDS011;35901;48.694;9.476;2022-08-03T12:39:22;1.65;;;1.55;;
50012;SDS011;35901;48.694;9.476;2022-08-03T12:41:41;1.90;;;1.80;;
50012;SDS011;35901;48.694;9.476;2022-08-03T12:44:08;1.65;;;1.55;;
50012;SDS011;35901;48.694;9.476;2022-08-03T12:46:36;1.77;;;1.67;;
50012;SDS011;35901;48.694;9.476;2022-08-03T12:49:10;2.38;;;1.70;;
50012;SDS011;35901;48.694;9.476;2022-08-03T12:54:08;1.75;;;1.65;;
50012;SDS011;35901;48.694;9.476;2022-08-03T12:56:55;2.15;;;1.98;;
50012;SDS011;35901;48.694;9.476;2022-08-03T12:59:29;1.63;;;1.52;;
50012;SDS011;35901;48.694;9.476;2022-08-03T13:01:57;1.70;;;1.60;;
50012;SDS011;35901;48.694;9.476;2022-08-03T13:04:27;1.80;;;1.70;;
50012;SDS011;35901;48.694;9.476;2022-08-03T13:06:56;2.00;;;1.90;;
50012;SDS011;35901;48.694;9.476;2022-08-03T13:09:23;2.00;;;1.90;;
50012;SDS011;35901;48.694;9.476;2022-08-03T13:12:09;2.42;;;1.70;;
50012;SDS011;35901;48.694;9.476;2022-08-03T13:14:36;1.65;;;1.55;;
50012;SDS011;35901;48.694;9.476;2022-08-03T13:17:03;2.53;;;1.80;;
50012;SDS011;35901;48.694;9.476;2022-08-03T13:19:31;2.10;;;1.95;;
50012;SDS011;35901;48.694;9.476;2022-08-03T13:22:09;1.70;;;1.60;;
50012;SDS011;35901;48.694;9.476;2022-08-03T13:24:53;1.60;;;1.50;;
50012;SDS011;35901;48.694;9.476;2022-08-03T13:27:21;2.15;;;1.60;;
50012;SDS011;35901;48.694;9.476;2022-08-03T13:29:49;1.70;;;1.60;;
50012;SDS011;35901;48.694;9.476;2022-08-03T13:32:18;1.80;;;1.70;;
50012;SDS011;35901;48.694;9.476;2022-08-03T13:34:44;1.80;;;1.70;;
50012;SDS011;35901;48.694;9.476;2022-08-03T13:37:10;1.70;;;1.60;;
50012;SDS011;35901;48.694;9.476;2022-08-03T13:39:37;1.90;;;1.80;;
50012;SDS011;35901;48.694;9.476;2022-08-03T13:42:03;1.70;;;1.60;;
50012;SDS011;35901;48.694;9.476;2022-08-03T13:44:30;1.67;;;1.58;;
50012;SDS011;35901;48.694;9.476;2022-08-03T13:46:57;2.25;;;1.60;;
50012;SDS011;35901;48.694;9.476;2022-08-03T13:49:25;2.10;;;1.52;;
50012;SDS011;35901;48.694;9.476;2022-08-03T13:51:51;1.90;;;1.75;;
50012;SDS011;35901;48.694;9.476;2022-08-03T13:54:17;2.00;;;1.58;;
50012;SDS011;35901;48.694;9.476;2022-08-03T13:56:46;3.15;;;1.63;;
50012;SDS011;35901;48.694;9.476;2022-08-03T13:59:17;1.70;;;1.60;;
50012;SDS011;35901;48.694;9.476;2022-08-03T14:01:44;1.70;;;1.60;;
50012;SDS011;35901;48.694;9.476;2022-08-03T14:04:14;1.60;;;1.50;;
50012;SDS011;35901;48.694;9.476;2022-08-03T14:06:40;1.80;;;1.70;;
50012;SDS011;35901;48.694;9.476;2022-08-03T14:09:08;1.70;;;1.60;;
50012;SDS011;35901;48.694;9.476;2022-08-03T14:11:34;1.40;;;1.40;;
50012;SDS011;35901;48.694;9.476;2022-08-03T14:14:00;1.75;;;1.65;;
50012;SDS011;35901;48.694;9.476;2022-08-03T14:16:26;1.50;;;1.50;;
50012;SDS011;35901;48.694;9.476;2022-08-03T14:18:52;1.83;;;1.70;;
50012;SDS011;35901;48.694;9.476;2022-08-03T14:21:17;1.70;;;1.60;;
50012;SDS011;35901;48.694;9.476;2022-08-03T14:23:44;1.52;;;1.42;;
50012;SDS011;35901;48.694;9.476;2022-08-03T14:26:10;1.50;;;1.50;;
50012;SDS011;35901;48.694;9.476;2022-08-03T14:28:36;2.00;;;1.52;;
50012;SDS011;35901;48.694;9.476;2022-08-03T14:31:02;1.55;;;1.52;;
50012;SDS011;35901;48.694;9.476;2022-08-03T14:33:28;2.45;;;1.70;;
50012;SDS011;35901;48.694;9.476;2022-08-03T14:35:54;1.80;;;1.70;;
50012;SDS011;35901;48.694;9.476;2022-08-03T14:38:20;1.70;;;1.60;;
50012;SDS011;35901;48.694;9.476;2022-08-03T14:40:46;2.13;;;1.83;;
50012;SDS011;35901;48.694;9.476;2022-08-03T14:43:12;1.88;;;1.77;;
50012;SDS011;35901;48.694;9.476;2022-08-03T14:45:38;1.92;;;1.83;;
50012;SDS011;35901;48.694;9.476;2022-08-03T14:48:05;3.03;;;1.65;;
50012;SDS011;35901;48.694;9.476;2022-08-03T14:50:31;1.65;;;1.55;;
50012;SDS011;35901;48.694;9.476;2022-08-03T14:52:57;2.80;;;1.80;;
50012;SDS011;35901;48.694;9.476;2022-08-03T14:55:23;1.92;;;1.83;;
50012;SDS011;35901;48.694;9.476;2022-08-03T14:57:48;3.50;;;1.80;;
50012;SDS011;35901;48.694;9.476;2022-08-03T15:00:14;2.13;;;1.60;;
50012;SDS011;35901;48.694;9.476;2022-08-03T15:02:40;1.67;;;1.58;;
50012;SDS011;35901;48.694;9.476;2022-08-03T15:05:06;1.70;;;1.60;;
50012;SDS011;35901;48.694;9.476;2022-08-03T15:07:32;1.70;;;1.60;;
50012;SDS011;35901;48.694;9.476;2022-08-03T15:09:59;1.60;;;1.50;;
50012;SDS011;35901;48.694;9.476;2022-08-03T15:12:33;1.58;;;1.58;;
50012;SDS011;35901;48.694;9.476;2022-08-03T15:14:59;1.83;;;1.73;;
50012;SDS011;35901;48.694;9.476;2022-08-03T15:17:25;1.73;;;1.52;;
50012;SDS011;35901;48.694;9.476;2022-08-03T15:19:51;1.70;;;1.60;;
50012;SDS011;35901;48.694;9.476;2022-08-03T15:22:20;1.73;;;1.52;;
50012;SDS011;35901;48.694;9.476;2022-08-03T15:24:46;1.70;;;1.60;;
50012;SDS011;35901;48.694;9.476;2022-08-03T15:27:12;1.67;;;1.60;;
50012;SDS011;35901;48.694;9.476;2022-08-03T15:29:38;1.70;;;1.60;;
50012;SDS011;35901;48.694;9.476;2022-08-03T15:32:03;1.65;;;1.55;;
50012;SDS011;35901;48.694;9.476;2022-08-03T15:34:29;1.70;;;1.60;;
50012;SDS011;35901;48.694;9.476;2022-08-03T15:36:55;1.90;;;1.70;;
50012;SDS011;35901;48.694;9.476;2022-08-03T15:39:21;1.58;;;1.48;;
50012;SDS011;35901;48.694;9.476;2022-08-03T15:41:46;1.67;;;1.58;;